Time;durP1;ratioP1;P1;durP2;ratioP2;P2;SDS_P1;SDS_P2;PMS_P1;PMS_P2;Temp;Humidity;BMP_temperature;BMP_pressure;BME280_temperature;BME280_humidity;BME280_pressure;Samples;Min_cycle;Max_cycle;Signal;HPM_P1;HPM_P2
2021/01/19 00:01:17;;;;;;;6.07;5.47;;;6.60;99.90;;;;;;5115001;27;20473;-74
2021/01/19 00:03:43;;;;;;;10.13;6.47;;;6.60;99.90;;;;;;5089673;28;20427;-74
2021/01/19 00:06:11;;;;;;;12.37;7.00;;;6.60;99.90;;;;;;5056231;28;20184;-74
2021/01/19 00:08:42;;;;;;;7.70;6.13;;;6.70;99.90;;;;;;5109617;27;20437;-74
2021/01/19 00:11:08;;;;;;;11.80;6.90;;;6.70;99.90;;;;;;5067189;28;20602;-74
2021/01/19 00:13:34;;;;;;;13.23;8.50;;;6.50;99.90;;;;;;5105620;28;20417;-74
2021/01/19 00:15:59;;;;;;;10.37;7.13;;;6.80;99.90;;;;;;5109921;28;20700;-74
2021/01/19 00:18:25;;;;;;;9.10;6.90;;;6.80;99.90;;;;;;5091510;28;20669;-74
2021/01/19 00:20:51;;;;;;;13.30;7.53;;;6.80;99.90;;;;;;5110651;28;20176;-74
2021/01/19 00:23:17;;;;;;;10.93;7.83;;;6.60;99.90;;;;;;5108988;28;20187;-74
2021/01/19 00:25:43;;;;;;;11.20;8.10;;;6.50;99.90;;;;;;5113573;27;20411;-74
2021/01/19 00:28:09;;;;;;;13.23;8.50;;;6.40;99.90;;;;;;5102644;28;20179;-74
2021/01/19 00:30:43;;;;;;;16.63;8.70;;;6.80;99.90;;;;;;5075156;28;20449;-74
2021/01/19 00:33:10;;;;;;;9.00;7.47;;;6.40;99.90;;;;;;5096428;28;20418;-73
2021/01/19 00:35:37;;;;;;;10.00;7.10;;;6.70;99.90;;;;;;5091748;28;20998;-74
2021/01/19 00:38:03;;;;;;;12.73;7.70;;;6.50;99.90;;;;;;5109221;28;20438;-74
2021/01/19 00:40:30;;;;;;;11.57;8.90;;;6.40;99.90;;;;;;5113010;27;20500;-74
2021/01/19 00:42:57;;;;;;;12.47;7.70;;;6.50;99.90;;;;;;5089922;28;21009;-74
2021/01/19 00:45:25;;;;;;;13.57;7.23;;;6.50;99.90;;;;;;5109961;28;20421;-74
2021/01/19 00:47:51;;;;;;;10.67;7.37;;;6.50;99.90;;;;;;5091569;28;20422;-74
2021/01/19 00:50:17;;;;;;;13.60;7.03;;;6.30;99.90;;;;;;5110033;28;20456;-74
2021/01/19 00:52:43;;;;;;;12.87;7.20;;;6.30;99.90;;;;;;5091183;28;20458;-74
2021/01/19 00:55:10;;;;;;;14.03;7.60;;;6.70;99.90;;;;;;5082759;28;20296;-74
2021/01/19 00:57:36;;;;;;;11.50;6.70;;;6.50;99.90;;;;;;5116404;27;20426;-74
2021/01/19 01:00:05;;;;;;;9.70;6.13;;;6.40;99.90;;;;;;5109809;28;20476;-74
2021/01/19 01:02:33;;;;;;;11.57;6.50;;;6.40;99.90;;;;;;5074926;28;20428;-74
2021/01/19 01:04:58;;;;;;;12.20;6.33;;;6.40;99.90;;;;;;5090707;28;20421;-74
2021/01/19 01:07:24;;;;;;;11.13;6.67;;;6.30;99.90;;;;;;5109137;28;20417;-74
2021/01/19 01:09:50;;;;;;;12.10;7.10;;;6.50;99.90;;;;;;5065840;28;20222;-74
2021/01/19 01:12:15;;;;;;;7.23;5.80;;;6.30;99.90;;;;;;5091155;28;20294;-74
2021/01/19 01:14:41;;;;;;;9.80;5.50;;;6.30;99.90;;;;;;5073350;28;20184;-74
2021/01/19 01:17:09;;;;;;;9.47;6.20;;;6.30;99.90;;;;;;5091203;28;20622;-74
2021/01/19 01:19:35;;;;;;;8.07;6.03;;;6.30;99.90;;;;;;5109252;28;20186;-74
2021/01/19 01:22:00;;;;;;;10.10;5.40;;;6.30;99.90;;;;;;5074244;28;20422;-74
2021/01/19 01:24:26;;;;;;;8.50;6.20;;;6.20;99.90;;;;;;5110967;27;20232;-74
2021/01/19 01:26:55;;;;;;;7.47;5.33;;;6.20;99.90;;;;;;5109159;28;20525;-74
2021/01/19 01:29:23;;;;;;;10.97;5.23;;;6.30;99.90;;;;;;5109069;28;20192;-74
2021/01/19 01:31:51;;;;;;;8.23;5.30;;;6.20;99.90;;;;;;5073012;28;20409;-74
2021/01/19 01:34:17;;;;;;;8.20;5.07;;;6.30;99.90;;;;;;5053944;28;20192;-74
2021/01/19 01:36:43;;;;;;;8.13;5.37;;;6.30;99.90;;;;;;5099047;28;20476;-74
2021/01/19 01:39:08;;;;;;;10.20;7.00;;;6.20;99.90;;;;;;5086788;28;20188;-74
2021/01/19 01:41:34;;;;;;;6.10;4.97;;;6.30;99.90;;;;;;5098317;28;20187;-74
2021/01/19 01:44:03;;;;;;;5.73;4.40;;;6.10;99.90;;;;;;5090311;28;20180;-74
2021/01/19 01:46:35;;;;;;;9.23;5.00;;;6.10;99.90;;;;;;5108822;28;20188;-74
2021/01/19 01:49:02;;;;;;;6.70;4.20;;;6.30;99.90;;;;;;5090848;28;20814;-74
2021/01/19 01:51:29;;;;;;;9.60;5.40;;;6.20;99.90;;;;;;5090609;28;20508;-74
2021/01/19 01:54:00;;;;;;;5.77;4.60;;;6.60;99.90;;;;;;5084552;28;20935;-74
2021/01/19 01:56:26;;;;;;;5.50;4.30;;;6.40;99.90;;;;;;5111334;27;20461;-74
2021/01/19 01:58:55;;;;;;;5.20;3.57;;;6.30;99.90;;;;;;5089789;28;20432;-73
2021/01/19 02:01:23;;;;;;;8.97;4.33;;;6.50;99.90;;;;;;5090712;28;20509;-73
2021/01/19 02:03:53;;;;;;;4.40;3.73;;;6.40;99.90;;;;;;5090207;28;20279;-73
2021/01/19 02:06:19;;;;;;;6.03;3.60;;;6.20;99.90;;;;;;5090477;28;20482;-73
2021/01/19 02:08:49;;;;;;;6.87;3.43;;;6.20;99.90;;;;;;5108452;28;20425;-73
2021/01/19 02:11:33;;;;;;;8.30;4.20;;;6.30;99.90;;;;;;5081991;28;20252;-73
2021/01/19 02:14:03;;;;;;;4.23;3.13;;;6.40;99.90;;;;;;5104056;28;20486;-73
2021/01/19 02:16:47;;;;;;;8.90;4.07;;;6.20;99.90;;;;;;5090247;28;20472;-73
2021/01/19 02:19:21;;;;;;;3.90;3.33;;;6.30;99.90;;;;;;5108750;28;20436;-73
2021/01/19 02:22:11;;;;;;;5.33;3.37;;;6.10;99.90;;;;;;5108258;28;20442;-73
2021/01/19 02:24:47;;;;;;;6.17;3.57;;;6.30;99.90;;;;;;5084625;28;20445;-75
2021/01/19 02:27:44;;;;;;;4.47;2.90;;;6.30;99.90;;;;;;5105084;28;20827;-73
2021/01/19 02:30:18;;;;;;;4.90;3.30;;;6.20;99.90;;;;;;5068491;28;20413;-73
2021/01/19 02:33:03;;;;;;;3.93;3.13;;;6.30;99.90;;;;;;5093352;28;20405;-74
2021/01/19 02:35:45;;;;;;;6.73;3.47;;;6.50;99.90;;;;;;5112681;28;20461;-74
2021/01/19 02:38:36;;;;;;;7.07;3.30;;;6.30;99.90;;;;;;5111933;28;20470;-74
2021/01/19 02:41:03;;;;;;;5.00;2.83;;;6.20;99.90;;;;;;5115733;27;20512;-74
2021/01/19 02:43:30;;;;;;;4.87;2.60;;;6.20;99.90;;;;;;5076724;28;20424;-74
2021/01/19 02:45:58;;;;;;;3.60;2.80;;;6.20;99.90;;;;;;5077714;28;20425;-73
2021/01/19 02:48:25;;;;;;;5.83;3.03;;;6.30;99.90;;;;;;5093264;28;21085;-73
2021/01/19 02:50:53;;;;;;;5.13;3.07;;;6.00;99.90;;;;;;5094210;28;20191;-74
2021/01/19 02:53:20;;;;;;;5.13;2.40;;;6.10;99.90;;;;;;5110548;28;20439;-74
2021/01/19 02:55:47;;;;;;;5.07;2.50;;;6.40;99.90;;;;;;5109983;28;20488;-73
2021/01/19 02:58:34;;;;;;;4.90;2.80;;;6.10;99.90;;;;;;5076667;28;20652;-74
2021/01/19 03:01:04;;;;;;;5.63;2.97;;;6.10;99.90;;;;;;5082833;28;20445;-73
2021/01/19 03:03:43;;;;;;;2.97;2.27;;;6.10;99.90;;;;;;5093431;28;20470;-74
2021/01/19 03:06:16;;;;;;;7.73;3.17;;;6.20;99.90;;;;;;5073747;28;20478;-73
2021/01/19 03:08:44;;;;;;;3.70;2.40;;;6.20;99.90;;;;;;5111234;28;21036;-74
2021/01/19 03:11:19;;;;;;;5.93;2.50;;;6.50;99.90;;;;;;5063490;28;20856;-74
2021/01/19 03:13:48;;;;;;;5.73;2.63;;;6.20;99.90;;;;;;5101116;28;20444;-73
2021/01/19 03:16:17;;;;;;;4.77;2.43;;;6.20;99.90;;;;;;5111808;28;20558;-76
2021/01/19 03:18:45;;;;;;;4.17;2.00;;;6.30;99.90;;;;;;5111783;28;20457;-73
2021/01/19 03:21:11;;;;;;;2.50;2.07;;;6.20;99.90;;;;;;5111762;28;20505;-73
2021/01/19 03:23:38;;;;;;;2.90;2.00;;;6.10;99.90;;;;;;5092560;28;20526;-73
2021/01/19 03:26:05;;;;;;;3.23;2.23;;;6.30;99.90;;;;;;5096621;28;20429;-73
2021/01/19 03:28:31;;;;;;;4.13;2.40;;;6.00;99.90;;;;;;5116835;27;20422;-73
2021/01/19 03:30:57;;;;;;;3.43;1.90;;;6.30;99.90;;;;;;5063321;28;20433;-74
2021/01/19 03:33:24;;;;;;;8.03;2.67;;;6.20;99.90;;;;;;5110089;28;20443;-73
2021/01/19 03:35:50;;;;;;;3.70;2.70;;;6.20;99.90;;;;;;5110954;28;20462;-74
2021/01/19 03:38:16;;;;;;;5.80;2.73;;;6.20;99.90;;;;;;5111781;28;21025;-73
2021/01/19 03:40:42;;;;;;;4.37;2.67;;;6.10;99.90;;;;;;5083765;28;20430;-73
2021/01/19 03:43:08;;;;;;;5.77;2.50;;;6.00;99.90;;;;;;5090880;28;20414;-73
2021/01/19 03:45:34;;;;;;;4.80;2.37;;;6.00;99.90;;;;;;5093231;28;20195;-73
2021/01/19 03:48:00;;;;;;;2.90;2.60;;;6.00;99.90;;;;;;5111312;28;20456;-73
2021/01/19 03:50:28;;;;;;;4.27;2.30;;;6.00;99.90;;;;;;5097238;28;20422;-73
2021/01/19 03:52:54;;;;;;;4.43;2.57;;;5.90;99.90;;;;;;5110702;28;20418;-75
2021/01/19 03:55:19;;;;;;;6.43;2.70;;;5.90;99.90;;;;;;5102001;28;20457;-73
2021/01/19 03:57:45;;;;;;;5.67;2.37;;;6.00;99.90;;;;;;5075400;28;20946;-75
2021/01/19 04:00:14;;;;;;;2.43;2.07;;;6.00;99.90;;;;;;5092820;28;20184;-76
2021/01/19 04:02:41;;;;;;;5.00;2.40;;;6.00;99.90;;;;;;5092674;28;20184;-73
2021/01/19 04:05:08;;;;;;;3.93;2.33;;;5.90;99.90;;;;;;5096774;28;20475;-73
2021/01/19 04:07:41;;;;;;;4.37;2.57;;;5.90;99.90;;;;;;5092517;28;20418;-73
2021/01/19 04:10:12;;;;;;;4.93;2.53;;;6.00;99.90;;;;;;5092493;28;20919;-73
2021/01/19 04:12:41;;;;;;;3.10;2.43;;;5.90;99.90;;;;;;5102566;28;20441;-73
2021/01/19 04:15:08;;;;;;;6.07;2.33;;;6.10;99.90;;;;;;5110292;28;20422;-73
2021/01/19 04:17:34;;;;;;;5.17;2.30;;;6.20;99.90;;;;;;5110895;28;20456;-73
2021/01/19 04:19:59;;;;;;;3.60;2.27;;;6.20;99.90;;;;;;5092397;28;20441;-73
2021/01/19 04:22:28;;;;;;;10.40;2.97;;;6.10;99.90;;;;;;5092540;28;20745;-74
2021/01/19 04:24:54;;;;;;;2.00;1.77;;;6.00;99.90;;;;;;5089865;28;20180;-73
2021/01/19 04:27:22;;;;;;;4.77;2.17;;;6.00;99.90;;;;;;5059424;28;20410;-73
2021/01/19 04:29:48;;;;;;;3.97;2.50;;;5.70;99.90;;;;;;5089738;28;20421;-75
2021/01/19 04:32:14;;;;;;;4.00;2.10;;;5.70;99.90;;;;;;5109621;28;20229;-73
2021/01/19 04:34:40;;;;;;;4.47;2.10;;;5.70;99.90;;;;;;5109702;28;20179;-73
2021/01/19 04:37:06;;;;;;;4.90;2.00;;;5.90;99.90;;;;;;5092174;28;20524;-73
2021/01/19 04:39:32;;;;;;;3.43;2.00;;;6.10;99.90;;;;;;5091260;28;20835;-73
2021/01/19 04:41:57;;;;;;;4.10;2.40;;;5.70;99.90;;;;;;5088171;28;20183;-73
2021/01/19 04:44:26;;;;;;;3.13;2.13;;;5.90;99.90;;;;;;5091157;28;20180;-73
2021/01/19 04:46:54;;;;;;;5.37;2.87;;;5.60;99.90;;;;;;5110177;28;20195;-73
2021/01/19 04:49:20;;;;;;;4.97;3.00;;;5.90;99.90;;;;;;5101922;28;20422;-76
2021/01/19 04:51:51;;;;;;;4.13;2.27;;;6.00;99.90;;;;;;5085478;28;20449;-75
2021/01/19 04:54:22;;;;;;;6.40;2.80;;;5.40;99.90;;;;;;5108557;28;20422;-74
2021/01/19 04:57:00;;;;;;;4.83;2.70;;;5.70;99.90;;;;;;5116931;27;20484;-73
2021/01/19 04:59:38;;;;;;;3.80;2.53;;;5.80;99.90;;;;;;5113648;27;20817;-75
2021/01/19 05:02:23;;;;;;;7.60;2.80;;;5.50;99.90;;;;;;5108955;28;20797;-73
2021/01/19 05:05:04;;;;;;;4.37;2.60;;;5.50;99.90;;;;;;5107775;28;20418;-74
2021/01/19 05:07:32;;;;;;;7.80;3.33;;;5.40;99.90;;;;;;5108479;28;20471;-74
2021/01/19 05:10:10;;;;;;;8.03;3.80;;;5.50;99.90;;;;;;5106958;28;20953;-73
2021/01/19 05:12:41;;;;;;;6.23;3.03;;;5.30;99.90;;;;;;5083995;28;20512;-73
2021/01/19 05:15:11;;;;;;;8.60;3.13;;;5.50;99.90;;;;;;5089236;28;20502;-73
2021/01/19 05:17:39;;;;;;;4.73;2.53;;;5.40;99.90;;;;;;5108248;28;20412;-74
2021/01/19 05:20:06;;;;;;;8.77;4.13;;;5.30;99.90;;;;;;5108245;28;20425;-76
2021/01/19 05:22:34;;;;;;;8.30;2.77;;;5.60;99.90;;;;;;5089924;28;20417;-73
2021/01/19 05:25:00;;;;;;;5.90;2.90;;;5.40;99.90;;;;;;5089268;28;20429;-74
2021/01/19 05:27:27;;;;;;;5.80;2.60;;;5.10;99.90;;;;;;5039534;28;20557;-73
2021/01/19 05:30:04;;;;;;;7.93;2.73;;;5.30;99.90;;;;;;5095560;28;20195;-74
2021/01/19 05:32:45;;;;;;;5.00;2.70;;;5.20;99.90;;;;;;5089900;28;20421;-73
2021/01/19 05:35:18;;;;;;;5.80;2.87;;;5.30;99.90;;;;;;5108653;28;20418;-73
2021/01/19 05:37:55;;;;;;;3.40;3.10;;;5.60;99.90;;;;;;5090828;28;20417;-76
2021/01/19 05:40:21;;;;;;;4.93;2.50;;;5.30;99.90;;;;;;5108094;28;20431;-73
2021/01/19 05:42:47;;;;;;;4.93;2.43;;;5.50;99.90;;;;;;5077247;28;20501;-73
2021/01/19 05:45:22;;;;;;;7.90;2.90;;;5.20;99.90;;;;;;5089237;28;20606;-73
2021/01/19 05:47:47;;;;;;;5.97;3.03;;;5.50;99.90;;;;;;5097149;28;20445;-73
2021/01/19 05:50:14;;;;;;;5.23;2.80;;;5.30;99.90;;;;;;5090709;28;20270;-73
2021/01/19 05:52:41;;;;;;;5.73;2.73;;;5.20;99.90;;;;;;5091032;28;20814;-75
2021/01/19 05:55:07;;;;;;;3.93;2.53;;;5.10;99.90;;;;;;5089168;28;20928;-74
2021/01/19 05:57:33;;;;;;;3.70;2.80;;;5.30;99.90;;;;;;5074258;28;20488;-73
2021/01/19 06:00:03;;;;;;;4.63;2.50;;;5.20;99.90;;;;;;5100277;28;20422;-74
2021/01/19 06:02:42;;;;;;;5.97;2.20;;;5.20;99.90;;;;;;5090711;28;20269;-73
2021/01/19 06:05:14;;;;;;;5.50;2.47;;;5.10;99.90;;;;;;5089400;28;20433;-73
2021/01/19 06:07:46;;;;;;;9.87;3.27;;;5.10;99.90;;;;;;5102572;27;20425;-73
2021/01/19 06:10:20;;;;;;;5.87;2.63;;;5.10;99.90;;;;;;5098014;28;20959;-73
2021/01/19 06:12:46;;;;;;;6.43;3.20;;;5.10;99.90;;;;;;5114431;28;20522;-75
2021/01/19 06:15:12;;;;;;;3.50;2.33;;;5.30;99.90;;;;;;5083897;28;20425;-73
2021/01/19 06:17:38;;;;;;;7.20;3.10;;;5.20;99.90;;;;;;5102150;28;20435;-74
2021/01/19 06:20:06;;;;;;;4.90;2.53;;;5.00;99.90;;;;;;5098465;28;20909;-73
2021/01/19 06:22:32;;;;;;;7.30;2.70;;;5.20;99.90;;;;;;5064154;28;20493;-73
2021/01/19 06:25:02;;;;;;;3.93;2.53;;;5.30;99.90;;;;;;5083258;28;20429;-74
2021/01/19 06:27:34;;;;;;;11.50;3.00;;;5.50;99.90;;;;;;5101275;28;20421;-73
2021/01/19 06:29:59;;;;;;;4.13;2.50;;;5.40;99.90;;;;;;5070124;28;21192;-73
2021/01/19 06:32:33;;;;;;;6.40;2.77;;;5.30;99.90;;;;;;5104678;28;20429;-73
2021/01/19 06:35:16;;;;;;;6.50;2.60;;;5.30;99.90;;;;;;5087571;28;20741;-73
2021/01/19 06:37:43;;;;;;;5.63;3.80;;;5.40;99.90;;;;;;5106048;28;20447;-73
2021/01/19 06:40:14;;;;;;;4.77;2.20;;;5.10;99.90;;;;;;5105775;28;20508;-73
2021/01/19 06:42:40;;;;;;;2.90;2.60;;;5.20;99.90;;;;;;5086768;28;20882;-73
2021/01/19 06:45:13;;;;;;;3.97;2.90;;;5.10;99.90;;;;;;5105947;28;20770;-73
2021/01/19 06:47:50;;;;;;;2.77;2.20;;;5.20;99.90;;;;;;5080414;28;20428;-72
2021/01/19 06:50:23;;;;;;;3.40;2.10;;;5.20;99.90;;;;;;5074427;28;20924;-72
2021/01/19 06:53:15;;;;;;;5.37;2.90;;;5.40;99.90;;;;;;5111900;28;20780;-73
2021/01/19 06:55:58;;;;;;;6.47;2.60;;;5.40;99.90;;;;;;5096831;28;20810;-75
2021/01/19 06:58:45;;;;;;;3.90;2.50;;;5.30;99.90;;;;;;5114244;28;20930;-75
2021/01/19 07:01:16;;;;;;;4.30;2.50;;;5.30;99.90;;;;;;5090513;28;20417;-75
2021/01/19 07:03:45;;;;;;;3.60;2.33;;;5.50;99.90;;;;;;5099231;28;20438;-75
2021/01/19 07:06:13;;;;;;;3.60;2.40;;;5.40;99.90;;;;;;5101656;28;20479;-75
2021/01/19 07:09:25;;;;;;;5.30;2.60;;;5.30;99.90;;;;;;5050841;28;20889;-75
2021/01/19 07:12:10;;;;;;;4.60;2.47;;;5.40;99.90;;;;;;5102747;28;20472;-75
2021/01/19 07:14:37;;;;;;;3.40;2.43;;;5.20;99.90;;;;;;5098534;28;20793;-75
2021/01/19 07:17:08;;;;;;;3.30;2.23;;;5.70;99.90;;;;;;5088386;27;20475;-75
2021/01/19 07:19:43;;;;;;;4.10;2.20;;;5.70;99.90;;;;;;5103595;27;20404;-75
2021/01/19 07:22:18;;;;;;;3.33;2.47;;;5.50;99.90;;;;;;5099042;27;20437;-76
2021/01/19 07:24:47;;;;;;;3.03;2.10;;;5.40;99.90;;;;;;5083188;28;20710;-76
2021/01/19 07:27:20;;;;;;;2.70;2.50;;;5.50;99.90;;;;;;5118084;27;20436;-76
2021/01/19 07:29:51;;;;;;;4.07;2.43;;;5.50;99.90;;;;;;5108209;28;20439;-79
2021/01/19 07:32:27;;;;;;;2.90;2.30;;;5.40;99.90;;;;;;5080474;28;20432;-77
2021/01/19 07:35:02;;;;;;;4.87;2.73;;;5.70;99.90;;;;;;5080898;28;20425;-77
2021/01/19 07:37:39;;;;;;;4.03;2.20;;;5.50;99.90;;;;;;5073986;28;20904;-77
2021/01/19 07:40:25;;;;;;;2.47;2.23;;;5.50;99.90;;;;;;5108232;28;20473;-76
2021/01/19 07:42:52;;;;;;;2.53;2.33;;;5.70;99.90;;;;;;5081571;28;20441;-76
2021/01/19 07:45:33;;;;;;;3.17;2.43;;;5.70;99.90;;;;;;5092910;28;20426;-76
2021/01/19 07:48:06;;;;;;;3.30;2.20;;;5.80;99.90;;;;;;5108840;28;20417;-76
2021/01/19 07:50:47;;;;;;;3.10;2.00;;;5.60;99.90;;;;;;5074091;28;20417;-76
2021/01/19 07:53:13;;;;;;;3.33;2.50;;;5.40;99.90;;;;;;5108037;28;20981;-76
2021/01/19 07:55:44;;;;;;;2.77;1.97;;;5.40;99.90;;;;;;5090013;28;20536;-76
2021/01/19 07:58:20;;;;;;;4.63;2.50;;;5.70;99.90;;;;;;5089276;28;20791;-76
2021/01/19 08:00:55;;;;;;;3.00;2.30;;;5.60;99.90;;;;;;5100642;28;20414;-76
2021/01/19 08:03:28;;;;;;;3.20;2.20;;;5.50;99.90;;;;;;5108190;28;20469;-76
2021/01/19 08:05:53;;;;;;;3.27;2.53;;;5.60;99.90;;;;;;5109301;28;20430;-76
2021/01/19 08:08:19;;;;;;;3.33;2.07;;;5.50;99.90;;;;;;5090604;28;20928;-76
2021/01/19 08:10:58;;;;;;;2.57;2.37;;;5.50;99.90;;;;;;5090705;28;20697;-76
2021/01/19 08:13:26;;;;;;;2.47;2.10;;;5.40;99.90;;;;;;5104762;27;20226;-76
2021/01/19 08:16:07;;;;;;;2.20;1.90;;;5.90;99.90;;;;;;5098586;28;20453;-76
2021/01/19 08:18:39;;;;;;;3.90;1.97;;;5.60;99.90;;;;;;5069817;28;20828;-77
2021/01/19 08:21:09;;;;;;;2.33;2.13;;;5.60;99.90;;;;;;5091866;27;20413;-76
2021/01/19 08:23:36;;;;;;;3.10;1.77;;;5.80;99.90;;;;;;5084455;28;20496;-76
2021/01/19 08:26:05;;;;;;;1.60;1.50;;;5.70;99.90;;;;;;5070743;27;20460;-77
2021/01/19 08:28:34;;;;;;;2.10;1.77;;;5.60;99.90;;;;;;5100897;27;20874;-76
2021/01/19 08:31:14;;;;;;;2.67;2.20;;;5.50;99.90;;;;;;5118007;27;20420;-76
2021/01/19 08:33:41;;;;;;;2.53;1.80;;;5.80;99.90;;;;;;5112064;27;20425;-76
2021/01/19 08:36:14;;;;;;;4.20;2.47;;;5.50;99.90;;;;;;5101899;28;20469;-76
2021/01/19 08:38:46;;;;;;;2.83;1.63;;;5.60;99.90;;;;;;5107774;28;20418;-76
2021/01/19 08:41:17;;;;;;;2.17;1.87;;;5.80;99.90;;;;;;5072324;28;20410;-76
2021/01/19 08:43:54;;;;;;;2.03;1.83;;;5.90;99.90;;;;;;5086297;28;20413;-76
2021/01/19 08:46:23;;;;;;;2.83;1.50;;;5.70;99.90;;;;;;5095619;28;20421;-76
2021/01/19 08:48:50;;;;;;;1.40;1.30;;;5.70;99.90;;;;;;5107876;28;20448;-76
2021/01/19 08:51:26;;;;;;;2.73;2.00;;;5.80;99.90;;;;;;5108838;27;20530;-76
2021/01/19 08:53:53;;;;;;;2.90;1.80;;;5.50;99.90;;;;;;5088864;28;20449;-76
2021/01/19 08:56:23;;;;;;;1.93;1.60;;;5.80;99.90;;;;;;5088990;28;21272;-76
2021/01/19 08:58:53;;;;;;;4.40;2.00;;;5.80;99.90;;;;;;5087886;28;20791;-76
2021/01/19 09:01:19;;;;;;;3.00;1.97;;;5.80;99.90;;;;;;5073240;28;20414;-76
2021/01/19 09:04:03;;;;;;;2.97;1.93;;;5.80;99.90;;;;;;5107292;28;20806;-76
2021/01/19 09:06:29;;;;;;;2.60;1.80;;;5.80;99.90;;;;;;5107897;28;20462;-76
2021/01/19 09:09:01;;;;;;;1.90;1.70;;;5.70;99.90;;;;;;5089798;28;20983;-76
2021/01/19 09:11:33;;;;;;;2.40;2.00;;;5.90;99.90;;;;;;5088913;28;20956;-76
2021/01/19 09:14:08;;;;;;;3.20;2.00;;;5.50;99.90;;;;;;5104815;28;20457;-76
2021/01/19 09:16:38;;;;;;;2.33;2.13;;;5.50;99.90;;;;;;5088798;28;20448;-76
2021/01/19 09:19:08;;;;;;;2.30;1.90;;;5.50;99.90;;;;;;5109374;27;20419;-76
2021/01/19 09:21:37;;;;;;;1.63;1.53;;;5.80;99.90;;;;;;5088928;28;20835;-76
2021/01/19 09:24:12;;;;;;;1.70;1.60;;;5.60;99.90;;;;;;5106878;28;20486;-76
2021/01/19 09:29:35;;;;;;;2.67;2.27;;;5.90;99.90;;;;;;5070362;28;20438;-76
2021/01/19 09:32:03;;;;;;;2.07;1.60;;;5.80;99.90;;;;;;5097422;28;20436;-76
2021/01/19 09:34:30;;;;;;;3.30;1.67;;;5.90;99.90;;;;;;5085111;28;20517;-76
2021/01/19 09:36:57;;;;;;;3.23;2.20;;;6.00;99.90;;;;;;5087552;28;20519;-76
2021/01/19 09:39:29;;;;;;;2.03;1.80;;;5.80;99.90;;;;;;5094236;28;20448;-76
2021/01/19 09:41:57;;;;;;;3.53;1.93;;;5.90;99.90;;;;;;5088609;28;20855;-76
2021/01/19 09:44:29;;;;;;;4.60;1.90;;;5.90;99.90;;;;;;5103921;28;20429;-76
2021/01/19 09:47:00;;;;;;;2.03;1.93;;;5.60;99.90;;;;;;5069277;27;21017;-76
2021/01/19 09:49:30;;;;;;;2.30;2.10;;;5.90;99.90;;;;;;5107249;28;21039;-76
2021/01/19 09:52:06;;;;;;;1.67;1.57;;;5.90;99.90;;;;;;5087942;28;20429;-76
2021/01/19 09:54:31;;;;;;;2.40;2.10;;;5.90;99.90;;;;;;5106193;28;20437;-76
2021/01/19 09:57:00;;;;;;;3.10;2.33;;;6.00;99.90;;;;;;5106511;28;20510;-76
2021/01/19 09:59:30;;;;;;;3.17;2.37;;;5.90;99.90;;;;;;5076075;28;20172;-76
2021/01/19 10:01:58;;;;;;;2.70;2.03;;;5.90;99.90;;;;;;5097478;28;20428;-77
2021/01/19 10:04:26;;;;;;;4.17;2.20;;;6.10;99.90;;;;;;5105872;28;20428;-76
2021/01/19 10:07:06;;;;;;;2.43;1.80;;;6.00;99.90;;;;;;5087935;28;20658;-76
2021/01/19 10:09:32;;;;;;;1.50;1.40;;;6.00;99.90;;;;;;5106627;28;20793;-76
2021/01/19 10:12:01;;;;;;;2.27;1.80;;;6.00;99.90;;;;;;5106350;28;20482;-76
2021/01/19 10:14:41;;;;;;;3.30;2.00;;;5.90;99.90;;;;;;5106711;28;20845;-76
2021/01/19 10:17:08;;;;;;;3.10;2.50;;;6.00;99.90;;;;;;5093524;28;20887;-76
2021/01/19 10:19:38;;;;;;;2.67;2.07;;;6.00;99.90;;;;;;5071340;28;20828;-76
2021/01/19 10:22:08;;;;;;;2.30;2.10;;;5.80;99.90;;;;;;5065301;28;20529;-76
2021/01/19 10:24:34;;;;;;;2.37;2.17;;;5.80;99.90;;;;;;5103144;28;20520;-76
2021/01/19 10:27:02;;;;;;;4.37;2.60;;;6.20;99.90;;;;;;5090920;28;20575;-76
2021/01/19 10:29:30;;;;;;;3.53;2.23;;;6.00;99.90;;;;;;5090407;28;20505;-76
2021/01/19 10:32:00;;;;;;;2.40;1.97;;;6.00;99.90;;;;;;5085502;28;20420;-76
2021/01/19 10:34:27;;;;;;;4.00;2.70;;;6.10;99.90;;;;;;5067790;28;20437;-76
2021/01/19 10:37:00;;;;;;;2.40;2.07;;;6.10;99.90;;;;;;5065566;28;20470;-76
2021/01/19 10:39:26;;;;;;;3.10;2.90;;;6.00;99.90;;;;;;5069976;28;20453;-76
2021/01/19 10:41:56;;;;;;;3.57;2.53;;;6.00;99.90;;;;;;5088057;28;20938;-76
2021/01/19 10:44:24;;;;;;;3.93;2.43;;;6.20;99.90;;;;;;5104838;28;20459;-76
2021/01/19 10:46:58;;;;;;;3.60;2.80;;;6.10;99.90;;;;;;5086211;28;20441;-76
2021/01/19 10:49:31;;;;;;;2.90;2.60;;;6.30;99.90;;;;;;5080391;28;20441;-76
2021/01/19 10:51:59;;;;;;;3.10;2.53;;;6.20;99.90;;;;;;5109260;28;21083;-76
2021/01/19 10:54:26;;;;;;;3.20;2.90;;;6.30;99.90;;;;;;5090918;28;20872;-76
2021/01/19 10:57:02;;;;;;;5.77;2.23;;;6.40;99.90;;;;;;5091765;28;20577;-76
2021/01/19 10:59:28;;;;;;;2.57;2.37;;;6.30;99.90;;;;;;5089179;28;20279;-76
2021/01/19 11:01:54;;;;;;;2.90;2.20;;;6.20;99.90;;;;;;5097590;27;20890;-76
2021/01/19 11:04:22;;;;;;;2.03;1.83;;;6.50;99.90;;;;;;5091288;28;20195;-76
2021/01/19 11:06:50;;;;;;;2.40;2.03;;;6.30;99.90;;;;;;5107597;28;20433;-76
2021/01/19 11:09:16;;;;;;;2.00;1.80;;;6.30;99.90;;;;;;5109954;28;20432;-76
2021/01/19 11:11:45;;;;;;;2.10;1.90;;;6.40;99.90;;;;;;5109676;28;20441;-76
2021/01/19 11:14:14;;;;;;;1.70;1.60;;;6.60;99.90;;;;;;5091927;28;20456;-76
2021/01/19 11:16:42;;;;;;;1.73;1.63;;;6.30;99.90;;;;;;5102854;28;20468;-76
2021/01/19 11:19:13;;;;;;;2.07;1.80;;;6.70;99.90;;;;;;5097761;28;20440;-76
2021/01/19 11:21:41;;;;;;;1.70;1.60;;;6.40;99.90;;;;;;5095244;28;20508;-76
2021/01/19 11:24:09;;;;;;;1.80;1.70;;;6.50;99.90;;;;;;5078503;28;20422;-76
2021/01/19 11:26:39;;;;;;;3.00;1.80;;;6.50;99.90;;;;;;5093813;28;20863;-76
2021/01/19 11:29:08;;;;;;;2.50;1.70;;;6.70;99.90;;;;;;5090088;28;20808;-76
2021/01/19 11:31:35;;;;;;;2.20;2.00;;;6.60;99.90;;;;;;5100352;28;20428;-76
2021/01/19 11:34:03;;;;;;;2.30;2.10;;;6.80;99.90;;;;;;5093360;28;20433;-76
2021/01/19 11:36:33;;;;;;;2.40;2.00;;;6.80;99.90;;;;;;5074594;28;20461;-76
2021/01/19 11:39:02;;;;;;;2.57;1.67;;;6.60;99.90;;;;;;5092664;28;20570;-76
2021/01/19 11:41:28;;;;;;;3.67;2.33;;;6.70;99.90;;;;;;5092843;28;20417;-76
2021/01/19 11:43:55;;;;;;;2.00;1.90;;;6.70;99.90;;;;;;5112531;27;20440;-76
2021/01/19 11:46:23;;;;;;;2.20;2.10;;;6.80;99.90;;;;;;5095218;28;20301;-76
2021/01/19 11:48:50;;;;;;;2.00;1.77;;;7.00;99.90;;;;;;5094361;28;20816;-76
2021/01/19 11:51:22;;;;;;;1.70;1.60;;;6.70;99.90;;;;;;5095123;28;20429;-76
2021/01/19 11:53:50;;;;;;;2.37;1.70;;;6.70;99.90;;;;;;5104732;27;20433;-76
2021/01/19 11:56:16;;;;;;;2.10;1.80;;;6.70;99.90;;;;;;5095643;28;20492;-76
2021/01/19 11:58:43;;;;;;;2.10;1.77;;;6.80;99.90;;;;;;5094670;27;20424;-76
2021/01/19 12:01:20;;;;;;;2.20;2.00;;;6.90;99.90;;;;;;5116252;27;20417;-76
2021/01/19 12:03:47;;;;;;;5.10;2.83;;;6.80;99.90;;;;;;5113934;27;20418;-76
2021/01/19 12:06:16;;;;;;;2.20;2.00;;;7.00;99.90;;;;;;5113344;27;20776;-76
2021/01/19 12:08:45;;;;;;;2.23;1.87;;;7.00;99.90;;;;;;5102670;28;20410;-76
2021/01/19 12:11:11;;;;;;;2.60;2.37;;;7.10;99.90;;;;;;5107092;28;20433;-76
2021/01/19 12:13:40;;;;;;;6.30;2.40;;;7.20;99.90;;;;;;5088740;28;20421;-74
2021/01/19 12:16:06;;;;;;;2.73;2.30;;;7.00;99.90;;;;;;5072497;28;20843;-74
2021/01/19 12:18:33;;;;;;;2.60;2.40;;;7.10;99.90;;;;;;5069366;28;20924;-74
2021/01/19 12:21:02;;;;;;;2.40;2.20;;;7.20;99.90;;;;;;5089575;28;20440;-75
2021/01/19 12:23:28;;;;;;;2.53;2.33;;;7.10;99.90;;;;;;5099236;28;20905;-75
2021/01/19 12:25:58;;;;;;;2.37;2.17;;;7.00;99.90;;;;;;5072363;28;20418;-75
2021/01/19 12:28:27;;;;;;;2.80;2.60;;;7.30;99.90;;;;;;5107139;28;20422;-74
2021/01/19 12:30:54;;;;;;;4.30;2.67;;;7.30;99.90;;;;;;5074538;28;20477;-75
2021/01/19 12:33:21;;;;;;;2.60;2.40;;;7.20;99.90;;;;;;5097549;28;20418;-75
2021/01/19 12:35:47;;;;;;;3.23;2.97;;;7.30;99.90;;;;;;5073026;28;20522;-75
2021/01/19 12:38:14;;;;;;;2.57;2.37;;;7.10;99.90;;;;;;5107876;28;20803;-74
2021/01/19 12:40:40;;;;;;;2.83;2.63;;;7.50;99.90;;;;;;5089247;28;20528;-75
2021/01/19 12:43:08;;;;;;;3.10;2.83;;;7.40;99.90;;;;;;5107479;28;20970;-75
2021/01/19 12:45:37;;;;;;;3.23;2.97;;;7.40;99.90;;;;;;5108467;27;20834;-74
2021/01/19 12:48:05;;;;;;;2.97;2.70;;;7.30;99.90;;;;;;5107631;28;20473;-75
2021/01/19 12:50:34;;;;;;;2.90;2.70;;;7.50;99.90;;;;;;5089795;28;20421;-74
2021/01/19 12:53:05;;;;;;;2.90;2.70;;;7.50;99.90;;;;;;5107263;28;20512;-75
2021/01/19 12:55:34;;;;;;;2.90;2.70;;;7.50;99.90;;;;;;5089424;28;20417;-75
2021/01/19 12:58:03;;;;;;;2.90;2.70;;;7.40;99.90;;;;;;5089058;28;20465;-75
2021/01/19 13:00:28;;;;;;;2.83;2.50;;;7.40;99.90;;;;;;5066915;28;20430;-74
2021/01/19 13:02:57;;;;;;;3.00;2.80;;;7.50;99.90;;;;;;5087257;28;20486;-74
2021/01/19 13:05:23;;;;;;;3.20;3.00;;;7.50;99.90;;;;;;5083585;28;20219;-75
2021/01/19 13:07:49;;;;;;;2.90;2.60;;;7.60;99.90;;;;;;5088693;28;20456;-75
2021/01/19 13:10:14;;;;;;;3.40;3.20;;;7.60;99.90;;;;;;5087915;28;20207;-74
2021/01/19 13:12:40;;;;;;;3.60;3.30;;;7.40;99.90;;;;;;5055601;28;20200;-75